Terminal Aerodrome Forecast
Issued by NWS Upton, NY

Home | Current Version | Previous Version | Text Only | Print | Product List | Glossary On
Versions: 1 2 3 4 5 6 7 8 9 10 11 12 13 14 15 16 17 18 19 20 21 22 23 24 25 26 27 28 29 30 31 32
000
FTUS41 KOKX 202000 AAA
TAFLGA
TAF AMD
KLGA 202030Z 2021/2118 17009KT P6SM SCT045
     FM210700 06005KT P6SM VCSH OVC035
     FM211400 07008KT P6SM BKN040=

USA.gov is the U.S. government's official web portal to all federal, state and local government web resources and services.